San Juan Capistrano, California
Current Conditions -  °F | °C
As of 4:53 PM on Saturday 22 Nov 2014 (Local Time) from KSNA Reporting Station
Broken Clouds Broken Clouds  
Wind Chill: 67°   Ceiling: 23000
Heat Index: 67°   Visibility: 10mi
Dew Point: 58°   Wind: 7mph
Humidity: 73%   Direction: 200°SSW
Pressure: 30.01"   Gusts: NA
Location:  33.5°N, 117.66°W
Report Text: KSNA 230053Z 20006KT 10SM FEW016 BKN230 BKN250 19/14 A3001 RMK AO2 SLP163 T01940144
Loading
Personal Weather Stations






























Interactive Weather Map New forecast layout! Learn more

10-Day Weather Forecast

Advertisements
Track Severe Weather on mobile